createdAt,value
2017-05-11T00:02:22.092Z,18.04
2017-05-11T00:04:50.057Z,17.54
2017-05-11T00:07:18.004Z,23.82
2017-05-11T00:09:45.934Z,22.16
2017-05-11T00:12:13.896Z,26.08
2017-05-11T00:14:41.836Z,20.92
2017-05-11T00:17:09.777Z,29.52
2017-05-11T00:19:37.736Z,14.80
2017-05-11T00:22:05.672Z,20.98
2017-05-11T00:24:33.609Z,21.12
2017-05-11T00:27:01.563Z,19.78
2017-05-11T00:29:29.501Z,26.38
2017-05-11T00:31:57.048Z,24.82
2017-05-11T00:34:25.008Z,22.10
2017-05-11T00:36:52.940Z,18.68
2017-05-11T00:39:20.875Z,24.78
2017-05-11T00:41:48.954Z,13.74
2017-05-11T00:44:16.877Z,20.66
2017-05-11T00:46:44.808Z,16.92
2017-05-11T00:49:12.773Z,17.28
2017-05-11T00:51:40.707Z,17.06
2017-05-11T00:54:08.640Z,16.20
2017-05-11T00:56:36.597Z,15.80
2017-05-11T00:59:04.528Z,15.58
2017-05-11T01:01:32.066Z,23.40
2017-05-11T01:04:00.583Z,15.96
2017-05-11T01:06:28.520Z,21.10
2017-05-11T01:08:56.055Z,24.76
2017-05-11T01:11:24.029Z,23.70
2017-05-11T01:13:51.978Z,23.10
2017-05-11T01:16:19.908Z,16.88
2017-05-11T01:18:47.481Z,14.92
2017-05-11T01:21:15.417Z,15.68
2017-05-11T01:23:43.716Z,18.20
2017-05-11T01:26:11.673Z,17.72
2017-05-11T01:28:39.603Z,12.18
2017-05-11T01:31:07.535Z,16.60
2017-05-11T01:33:35.496Z,14.26
2017-05-11T01:36:03.028Z,18.62
2017-05-11T01:38:31.335Z,22.18
2017-05-11T01:40:59.292Z,47.34
2017-05-11T01:43:27.229Z,22.06
2017-05-11T01:45:55.164Z,22.48
2017-05-11T01:48:23.130Z,24.44
2017-05-11T01:50:51.068Z,25.94
2017-05-11T01:53:18.996Z,27.78
2017-05-11T01:55:46.568Z,26.22
2017-05-11T01:58:14.513Z,22.76
2017-05-11T02:00:42.443Z,30.50
2017-05-11T02:03:10.025Z,23.00
2017-05-11T02:05:37.569Z,25.34
2017-05-11T02:08:05.544Z,21.08
2017-05-11T02:10:33.498Z,30.88
2017-05-11T02:13:01.798Z,34.84
2017-05-11T02:15:29.741Z,38.98
2017-05-11T02:17:58.383Z,25.60
2017-05-11T02:20:26.326Z,52.38
2017-05-11T02:22:54.272Z,24.78
2017-05-11T02:25:22.238Z,26.80
2017-05-11T02:27:50.543Z,32.70
2017-05-11T02:30:18.482Z,31.34
2017-05-11T02:32:46.920Z,34.16
2017-05-11T02:35:14.863Z,43.30
2017-05-11T02:37:42.800Z,48.44
2017-05-11T02:40:10.760Z,43.34
2017-05-11T02:42:38.301Z,32.74
2017-05-11T02:45:06.240Z,29.04
2017-05-11T02:47:34.202Z,28.56
2017-05-11T02:50:02.144Z,33.58
2017-05-11T02:52:29.684Z,30.58
2017-05-11T02:54:57.648Z,30.54
2017-05-11T02:57:25.196Z,24.72
2017-05-11T02:59:53.130Z,34.82
2017-05-11T03:02:21.099Z,33.62
2017-05-11T03:04:48.632Z,40.74
2017-05-11T03:07:16.175Z,34.90
2017-05-11T03:09:44.148Z,36.42
2017-05-11T03:12:11.689Z,28.74
2017-05-11T03:14:39.624Z,29.88
2017-05-11T03:17:07.591Z,26.06
2017-05-11T03:19:35.523Z,32.84
2017-05-11T03:22:03.456Z,44.88
2017-05-11T03:24:31.412Z,34.94
2017-05-11T03:26:59.345Z,32.30
2017-05-11T03:29:27.647Z,27.48
2017-05-11T03:31:55.604Z,40.26
2017-05-11T03:34:23.900Z,38.06
2017-05-11T03:36:51.835Z,38.04
2017-05-11T03:39:20.196Z,41.68
2017-05-11T03:41:48.134Z,30.00
2017-05-11T03:44:16.056Z,31.36
2017-05-11T03:46:44.384Z,33.52
2017-05-11T03:49:11.915Z,25.56
2017-05-11T03:51:39.851Z,29.90
2017-05-11T03:54:07.803Z,34.86
2017-05-11T03:56:35.747Z,29.70
2017-05-11T03:59:03.676Z,33.52
2017-05-11T04:01:31.236Z,29.92
2017-05-11T04:03:59.168Z,35.92
2017-05-11T04:06:26.716Z,24.06
2017-05-11T04:08:54.675Z,29.28
2017-05-11T04:11:22.604Z,26.96
2017-05-11T04:13:50.914Z,29.02
2017-05-11T04:16:18.560Z,24.82
2017-05-11T04:18:46.852Z,27.68
2017-05-11T04:21:14.783Z,24.18
2017-05-11T04:23:43.112Z,20.10
2017-05-11T04:26:11.039Z,31.70
2017-05-11T04:28:39.367Z,20.44
2017-05-11T04:31:06.933Z,23.96
2017-05-11T04:33:34.877Z,33.74
2017-05-11T04:36:02.813Z,29.76
2017-05-11T04:38:31.144Z,33.44
2017-05-11T04:40:59.078Z,29.26
2017-05-11T04:43:27.383Z,22.64
2017-05-11T04:45:55.339Z,24.44
2017-05-11T04:48:23.280Z,21.68
2017-05-11T04:50:51.212Z,25.18
2017-05-11T04:53:19.167Z,26.00
2017-05-11T04:55:46.709Z,27.72
2017-05-11T04:58:14.649Z,25.48
2017-05-11T05:00:42.612Z,32.62
2017-05-11T05:03:10.564Z,24.88
2017-05-11T05:05:38.492Z,21.76
2017-05-11T05:08:06.456Z,19.38
2017-05-11T05:10:34.001Z,26.64
2017-05-11T05:13:01.536Z,33.38
2017-05-11T05:15:29.499Z,28.12
2017-05-11T05:17:57.431Z,26.56
2017-05-11T05:20:24.980Z,22.92
2017-05-11T05:22:52.945Z,24.88
2017-05-11T05:25:20.488Z,18.82
2017-05-11T05:27:48.791Z,22.16
2017-05-11T05:30:16.360Z,26.66
2017-05-11T05:32:44.300Z,20.46
2017-05-11T05:35:11.843Z,19.06
2017-05-11T05:37:39.803Z,19.02
2017-05-11T05:40:07.740Z,21.88
2017-05-11T05:42:35.673Z,23.72
2017-05-11T05:45:04.007Z,22.28
2017-05-11T05:47:31.939Z,38.18
2017-05-11T05:49:59.875Z,21.24
2017-05-11T05:52:27.759Z,20.32
2017-05-11T05:54:56.055Z,20.74
2017-05-11T05:57:23.988Z,21.30
2017-05-11T05:59:51.947Z,27.06
2017-05-11T06:02:19.876Z,22.06
2017-05-11T06:04:47.816Z,16.36
2017-05-11T06:07:16.147Z,19.48
2017-05-11T06:09:44.109Z,19.90
2017-05-11T06:12:11.648Z,18.60
2017-05-11T06:14:39.216Z,18.86
2017-05-11T06:17:06.751Z,24.10
2017-05-11T06:19:35.072Z,23.76
2017-05-11T06:22:02.634Z,22.02
2017-05-11T06:24:30.563Z,28.32
2017-05-11T06:26:58.103Z,33.04
2017-05-11T06:29:26.808Z,27.76
2017-05-11T06:31:55.112Z,24.34
2017-05-11T06:34:23.049Z,30.92
2017-05-11T06:36:51.393Z,26.50
2017-05-11T06:39:19.330Z,28.72
2017-05-11T06:41:46.872Z,24.28
2017-05-11T06:44:14.839Z,27.60
2017-05-11T06:46:42.776Z,24.26
2017-05-11T06:49:10.708Z,38.18
2017-05-11T06:51:38.272Z,25.98
2017-05-11T06:54:06.203Z,28.26
2017-05-11T06:56:33.766Z,21.88
2017-05-11T06:59:02.097Z,23.78
2017-05-11T07:01:30.031Z,27.08
2017-05-11T07:03:58.113Z,38.06
2017-05-11T07:06:26.036Z,37.20
2017-05-11T07:08:53.976Z,26.32
2017-05-11T07:11:21.927Z,18.22
2017-05-11T07:13:49.468Z,30.00
2017-05-11T07:16:17.400Z,30.18
2017-05-11T07:18:45.360Z,23.72
2017-05-11T07:21:13.300Z,18.22
2017-05-11T07:23:40.840Z,17.18
2017-05-11T07:26:08.802Z,21.58
2017-05-11T07:28:36.344Z,19.56
2017-05-11T07:31:04.276Z,19.36
2017-05-11T07:33:32.241Z,16.08
2017-05-11T07:36:00.177Z,19.12
2017-05-11T07:38:28.115Z,27.56
2017-05-11T07:40:56.080Z,19.36
2017-05-11T07:43:24.015Z,18.10
2017-05-11T07:45:51.975Z,20.86
2017-05-11T07:48:19.903Z,16.86
2017-05-11T07:50:48.237Z,21.52
2017-05-11T07:53:16.176Z,20.02
2017-05-11T07:55:43.713Z,18.60
2017-05-11T07:58:12.044Z,26.08
2017-05-11T08:00:39.968Z,16.18
2017-05-11T08:03:08.293Z,21.32
2017-05-11T08:05:36.264Z,20.26
2017-05-11T08:08:04.210Z,26.02
2017-05-11T08:10:31.744Z,15.36
2017-05-11T08:12:59.298Z,17.56
2017-05-11T08:15:27.619Z,16.28
2017-05-11T08:17:55.552Z,19.66
2017-05-11T08:20:23.527Z,20.58
2017-05-11T08:22:51.829Z,16.52
2017-05-11T08:25:19.775Z,20.00
2017-05-11T08:27:48.103Z,13.40
2017-05-11T08:30:16.057Z,17.06
2017-05-11T08:32:43.988Z,17.78
2017-05-11T08:35:12.312Z,14.66
2017-05-11T08:37:40.253Z,15.54
2017-05-11T08:40:07.783Z,16.12
2017-05-11T08:42:35.736Z,13.72
2017-05-11T08:45:03.672Z,19.10
2017-05-11T08:47:31.612Z,13.24
2017-05-11T08:49:59.946Z,13.98
2017-05-11T08:52:27.476Z,12.96
2017-05-11T08:54:55.409Z,13.38
2017-05-11T08:57:23.369Z,11.08
2017-05-11T08:59:51.294Z,13.84
2017-05-11T09:02:19.223Z,10.02
2017-05-11T09:04:46.789Z,15.26
2017-05-11T09:07:14.320Z,10.52
2017-05-11T09:09:42.272Z,15.30
2017-05-11T09:12:10.232Z,13.44
2017-05-11T09:14:38.155Z,11.42
2017-05-11T09:17:06.476Z,17.66
2017-05-11T09:19:34.767Z,16.86
2017-05-11T09:22:02.704Z,31.00
2017-05-11T09:24:30.636Z,16.56
2017-05-11T09:26:58.199Z,21.50
2017-05-11T09:29:26.128Z,18.50
2017-05-11T09:31:53.665Z,19.96
2017-05-11T09:34:21.322Z,27.28
2017-05-11T09:36:49.265Z,24.78
2017-05-11T09:39:16.800Z,20.46
2017-05-11T09:41:44.765Z,20.14
2017-05-11T09:44:12.701Z,22.66
2017-05-11T09:46:40.635Z,16.48
2017-05-11T09:49:08.584Z,17.06
2017-05-11T09:51:36.520Z,19.12
2017-05-11T09:54:04.457Z,16.28
2017-05-11T09:56:32.017Z,21.88
2017-05-11T09:58:59.556Z,18.34
2017-05-11T10:01:27.480Z,9.04
2017-05-11T10:03:55.471Z,14.66
2017-05-11T10:06:23.392Z,12.72
2017-05-11T10:08:50.924Z,10.24
2017-05-11T10:11:18.904Z,10.66
2017-05-11T10:13:46.844Z,10.50
2017-05-11T10:16:14.792Z,12.90
2017-05-11T10:18:42.773Z,16.80
2017-05-11T10:21:10.302Z,10.26
2017-05-11T10:23:38.604Z,8.08
2017-05-11T10:26:06.557Z,7.20
2017-05-11T10:28:34.480Z,8.24
2017-05-11T10:31:02.412Z,8.80
2017-05-11T10:33:30.361Z,12.36
2017-05-11T10:35:58.291Z,10.66
2017-05-11T10:38:26.224Z,8.40
2017-05-11T10:40:54.180Z,7.28
2017-05-11T10:43:22.111Z,8.90
2017-05-11T10:45:50.041Z,8.12
2017-05-11T10:48:17.605Z,6.48
2017-05-11T10:50:45.528Z,6.90
2017-05-11T10:53:13.825Z,6.78
2017-05-11T10:55:41.379Z,6.62
2017-05-11T10:58:09.313Z,11.96
2017-05-11T11:00:37.232Z,5.94
2017-05-11T11:03:05.186Z,7.02
2017-05-11T11:05:33.485Z,6.28
2017-05-11T11:08:01.417Z,5.64
2017-05-11T11:10:29.363Z,7.22
2017-05-11T11:12:57.296Z,7.40
2017-05-11T11:15:25.221Z,8.44
2017-05-11T11:17:53.176Z,6.10
2017-05-11T11:20:20.712Z,6.18
2017-05-11T11:22:48.642Z,6.94
2017-05-11T11:25:16.970Z,7.40
2017-05-11T11:27:44.902Z,6.12
2017-05-11T11:30:12.820Z,5.96
2017-05-11T11:32:40.779Z,5.72
2017-05-11T11:35:08.708Z,5.78
2017-05-11T11:37:36.637Z,5.10
2017-05-11T11:40:04.200Z,5.06
2017-05-11T11:42:32.121Z,5.70
2017-05-11T11:45:00.397Z,16.02
2017-05-11T11:47:28.804Z,5.24
2017-05-11T11:49:56.737Z,5.32
2017-05-11T11:52:24.660Z,7.58
2017-05-11T11:54:52.607Z,5.46
2017-05-11T11:57:20.532Z,7.88
2017-05-11T11:59:48.832Z,5.16
2017-05-11T12:02:16.383Z,5.02
2017-05-11T12:04:44.321Z,5.30
2017-05-11T12:07:11.897Z,7.44
2017-05-11T12:09:39.450Z,7.00
2017-05-11T12:12:07.748Z,4.92
2017-05-11T12:14:35.671Z,5.66
2017-05-11T12:17:03.648Z,5.58
2017-05-11T12:19:31.607Z,4.68
2017-05-11T12:21:59.532Z,11.02
2017-05-11T12:24:27.063Z,4.76
2017-05-11T12:26:55.020Z,6.66
2017-05-11T12:29:22.944Z,4.90
2017-05-11T12:31:50.868Z,5.44
2017-05-11T12:34:18.427Z,5.10
2017-05-11T12:36:46.352Z,5.20
2017-05-11T12:39:13.883Z,5.26
2017-05-11T12:41:42.212Z,4.80
2017-05-11T12:44:10.159Z,4.42
2017-05-11T12:46:38.104Z,6.00
2017-05-11T12:49:06.453Z,4.70
2017-05-11T12:51:34.396Z,4.96
2017-05-11T12:54:02.315Z,5.68
2017-05-11T12:56:30.640Z,7.26
2017-05-11T12:58:58.568Z,4.60
2017-05-11T13:01:26.868Z,4.88
2017-05-11T13:03:54.861Z,3.96
2017-05-11T13:06:22.777Z,6.74
2017-05-11T13:08:50.700Z,4.50
2017-05-11T13:11:18.660Z,6.74
2017-05-11T13:13:46.588Z,7.02
2017-05-11T13:16:14.520Z,4.50
2017-05-11T13:18:42.476Z,4.66
2017-05-11T13:21:10.405Z,4.14
2017-05-11T13:23:38.703Z,4.32
2017-05-11T13:26:06.668Z,3.86
2017-05-11T13:28:34.620Z,4.02
2017-05-11T13:31:02.945Z,4.50
2017-05-11T13:33:30.509Z,4.28
2017-05-11T13:35:58.031Z,3.98
2017-05-11T13:38:25.956Z,4.56
2017-05-11T13:40:53.913Z,3.90
2017-05-11T13:43:21.836Z,4.36
2017-05-11T13:45:49.764Z,4.52
2017-05-11T13:48:17.721Z,4.42
2017-05-11T13:50:45.648Z,4.68
2017-05-11T13:53:13.572Z,8.52
2017-05-11T13:55:41.523Z,4.54
2017-05-11T13:58:09.456Z,4.30
2017-05-11T14:00:37.387Z,4.72
2017-05-11T14:03:05.341Z,5.10
2017-05-11T14:05:33.268Z,4.80
2017-05-11T14:08:00.800Z,6.12
2017-05-11T14:10:28.752Z,5.52
2017-05-11T14:12:56.698Z,5.64
2017-05-11T14:15:24.617Z,4.16
2017-05-11T14:17:52.939Z,5.90
2017-05-11T14:20:20.868Z,4.52
2017-05-11T14:22:48.404Z,12.98
2017-05-11T14:25:16.355Z,6.26
2017-05-11T14:27:44.279Z,5.10
2017-05-11T14:30:12.213Z,7.72
2017-05-11T14:32:40.167Z,13.08
2017-05-11T14:35:08.095Z,4.94
2017-05-11T14:37:36.023Z,4.70
2017-05-11T14:40:03.988Z,5.60
2017-05-11T14:42:31.921Z,5.12
2017-05-11T14:44:59.461Z,4.70
2017-05-11T14:47:27.409Z,6.06
2017-05-11T14:49:55.331Z,4.92
2017-05-11T14:52:23.265Z,4.46
2017-05-11T14:54:50.820Z,6.30
2017-05-11T14:57:19.119Z,4.70
2017-05-11T14:59:47.048Z,4.62
2017-05-11T15:02:15.042Z,4.50
2017-05-11T15:04:42.967Z,5.18
2017-05-11T15:07:10.508Z,5.22
2017-05-11T15:09:38.463Z,5.18
2017-05-11T15:12:06.441Z,5.28
2017-05-11T15:14:34.368Z,10.66
2017-05-11T15:17:02.324Z,5.82
2017-05-11T15:19:30.265Z,8.52
2017-05-11T15:21:58.191Z,9.88
2017-05-11T15:24:26.511Z,5.58
2017-05-11T15:26:54.459Z,5.44
2017-05-11T15:29:22.371Z,7.72
2017-05-11T15:31:50.332Z,4.98
2017-05-11T15:34:18.260Z,5.54
2017-05-11T15:36:46.208Z,5.82
2017-05-11T15:39:14.516Z,11.24
2017-05-11T15:41:42.445Z,4.80
2017-05-11T15:44:10.406Z,11.68
2017-05-11T15:46:38.353Z,4.98
2017-05-11T15:49:06.283Z,13.38
2017-05-11T15:51:34.604Z,4.88
2017-05-11T15:54:02.526Z,5.52
2017-05-11T15:56:30.823Z,5.24
2017-05-11T15:58:58.775Z,4.92
2017-05-11T16:01:27.068Z,5.66
2017-05-11T16:03:55.011Z,6.28
2017-05-11T16:06:23.328Z,4.78
2017-05-11T16:08:51.252Z,5.06
2017-05-11T16:11:19.204Z,7.10
2017-05-11T18:32:55.379Z,6.30
2017-05-11T18:35:24.710Z,5.94
2017-05-11T18:37:53.952Z,5.80
2017-05-11T18:40:23.051Z,5.02
2017-05-11T18:42:52.086Z,5.38
2017-05-11T18:45:21.039Z,5.68
2017-05-11T18:47:49.933Z,5.72
2017-05-11T18:50:18.965Z,5.48
2017-05-11T18:52:47.890Z,5.28
2017-05-11T18:55:17.102Z,4.94
2017-05-11T18:57:46.027Z,5.66
2017-05-11T19:00:14.601Z,5.64
2017-05-11T19:02:43.299Z,5.30
2017-05-11T19:05:12.270Z,4.94
2017-05-11T19:07:41.235Z,11.24
2017-05-11T19:10:10.259Z,5.78
2017-05-11T19:12:39.221Z,5.76
2017-05-11T19:15:08.141Z,8.12
2017-05-11T19:17:37.153Z,5.36
2017-05-11T19:20:06.073Z,5.74
2017-05-11T19:22:35.007Z,5.80
2017-05-11T19:25:04.449Z,6.78
2017-05-11T19:27:33.394Z,14.56
2017-05-11T19:30:02.355Z,6.56
2017-05-11T19:32:31.398Z,11.12
2017-05-11T19:35:00.658Z,7.08
2017-05-11T19:37:29.592Z,10.44
2017-05-11T19:39:58.243Z,6.92
2017-05-11T19:42:27.286Z,8.28
2017-05-11T19:44:55.802Z,6.34
2017-05-11T19:47:24.759Z,8.86
2017-05-11T19:49:53.796Z,8.84
2017-05-11T19:52:22.723Z,7.38
2017-05-11T19:54:52.018Z,8.00
2017-05-11T19:57:20.695Z,7.18
2017-05-11T19:59:49.641Z,6.84
2017-05-11T20:02:18.446Z,5.60
2017-05-11T20:04:47.504Z,6.84
2017-05-11T20:07:16.796Z,9.30
2017-05-11T20:09:46.246Z,6.02
2017-05-11T20:12:15.174Z,7.56
2017-05-11T20:14:44.321Z,10.86
2017-05-11T20:17:13.589Z,8.36
2017-05-11T20:19:42.791Z,19.08
2017-05-11T20:22:12.963Z,6.38
2017-05-11T20:24:41.891Z,11.00
2017-05-11T20:27:10.965Z,8.48
2017-05-11T20:29:39.970Z,9.78
2017-05-11T20:32:08.896Z,13.86
2017-05-11T20:34:38.390Z,13.20
2017-05-11T20:37:07.161Z,15.70
2017-05-11T20:39:35.646Z,18.12
2017-05-11T20:42:04.216Z,18.82
2017-05-11T20:44:32.729Z,19.28
2017-05-11T20:47:01.459Z,13.12
2017-05-11T20:49:30.351Z,14.58
2017-05-11T20:51:58.727Z,13.78
2017-05-11T20:54:26.874Z,9.26
2017-05-11T20:56:55.060Z,12.40
2017-05-11T20:59:22.641Z,12.52
2017-05-11T21:01:50.698Z,12.80
2017-05-11T21:04:18.747Z,11.88
2017-05-11T21:06:47.071Z,14.52
2017-05-11T21:09:15.026Z,12.24
2017-05-11T21:11:42.988Z,11.38
2017-05-11T21:14:10.967Z,16.54
2017-05-11T21:16:38.932Z,14.14
2017-05-11T21:19:06.883Z,17.84
2017-05-11T21:21:34.848Z,18.46
2017-05-11T21:24:02.780Z,19.52
2017-05-11T21:26:30.744Z,19.98
2017-05-11T21:28:58.681Z,19.52
2017-05-11T21:31:26.627Z,32.22
2017-05-11T21:33:54.180Z,19.74
2017-05-11T21:36:21.719Z,45.60
2017-05-11T21:38:49.656Z,27.62
2017-05-11T21:41:17.615Z,30.86
2017-05-11T21:43:45.539Z,29.90
2017-05-11T21:46:13.844Z,29.26
2017-05-11T21:48:41.800Z,38.38
2017-05-11T21:51:10.107Z,32.62
2017-05-11T21:53:38.032Z,32.18
2017-05-11T21:56:06.002Z,30.04
2017-05-11T21:58:33.927Z,35.64
2017-05-11T22:01:01.463Z,29.44
2017-05-11T22:03:29.020Z,19.84
2017-05-11T22:05:56.956Z,31.32
2017-05-11T22:08:24.888Z,27.96
2017-05-11T22:10:52.887Z,28.16
2017-05-11T22:13:20.820Z,21.96
2017-05-11T22:15:48.743Z,36.68
2017-05-11T22:18:16.699Z,32.36
2017-05-11T22:20:44.658Z,33.32
2017-05-11T22:23:12.592Z,18.30
2017-05-11T22:25:40.523Z,18.32
2017-05-11T22:28:08.492Z,19.06
2017-05-11T22:30:36.432Z,19.74
2017-05-11T22:33:04.356Z,18.04
2017-05-11T22:35:32.307Z,21.26
2017-05-11T22:38:00.602Z,15.36
2017-05-11T22:40:28.536Z,15.76
2017-05-11T22:42:56.487Z,13.86
2017-05-11T22:45:24.425Z,18.30
2017-05-11T22:47:52.348Z,12.10
2017-05-11T22:50:20.303Z,17.74
2017-05-11T22:52:48.241Z,12.50
2017-05-11T22:55:16.184Z,11.96
2017-05-11T22:57:43.749Z,8.98
2017-05-11T23:00:11.672Z,8.72
2017-05-11T23:02:39.606Z,15.88
2017-05-11T23:05:07.560Z,16.32
2017-05-11T23:07:35.856Z,12.68
2017-05-11T23:10:03.779Z,23.14
2017-05-11T23:12:31.730Z,13.46
2017-05-11T23:14:59.664Z,15.74
2017-05-11T23:17:27.191Z,13.42
2017-05-11T23:19:55.517Z,20.24
2017-05-11T23:22:23.048Z,13.32
2017-05-11T23:24:50.584Z,23.68
2017-05-11T23:27:18.542Z,18.34
2017-05-11T23:29:46.549Z,19.20
2017-05-11T23:32:14.071Z,15.82
2017-05-11T23:34:42.027Z,16.64
2017-05-11T23:37:09.971Z,19.34
2017-05-11T23:39:37.919Z,18.64
2017-05-11T23:42:06.178Z,13.26
2017-05-11T23:44:34.475Z,7.96
2017-05-11T23:47:02.410Z,10.98
2017-05-11T23:49:30.356Z,10.14
2017-05-11T23:51:58.292Z,7.46
2017-05-11T23:55:44.748Z,9.68
